Time;durP1;ratioP1;P1;durP2;ratioP2;P2;SDS_P1;SDS_P2;PMS_P1;PMS_P2;Temp;Humidity;BMP_temperature;BMP_pressure;BME280_temperature;BME280_humidity;BME280_pressure;Samples;Min_cycle;Max_cycle;Signal;HPM_P1;HPM_P2
2023/12/22 00:00:02;;;;;;;;;;;;;;;9.07;71.67;97598.84;4468332;32;34935;-67
2023/12/22 00:02:30;;;;;;;;;;;;;;;8.99;72.23;97605.59;4454939;32;33903;-69
2023/12/22 00:04:58;;;;;;;;;;;;;;;9.15;71.60;97597.22;4468788;32;34768;-69
2023/12/22 00:07:25;;;;;;;;;;;;;;;8.99;71.94;97595.28;4454656;32;33495;-68
2023/12/22 00:09:53;;;;;;;;;;;;;;;9.14;71.29;97616.19;4468734;32;34744;-69
2023/12/22 00:12:20;;;;;;;;;;;;;;;9.29;71.06;97614.66;4469270;32;34376;-70
2023/12/22 00:14:47;;;;;;;;;;;;;;;9.41;70.60;97620.88;4469245;32;34776;-70
2023/12/22 00:17:14;;;;;;;;;;;;;;;9.45;70.48;97629.56;4468781;32;33531;-69
2023/12/22 00:19:42;;;;;;;;;;;;;;;9.39;70.64;97629.47;4469304;32;34000;-69
2023/12/22 00:22:10;;;;;;;;;;;;;;;9.35;71.16;97627.66;4468911;32;33869;-71
2023/12/22 00:24:37;;;;;;;;;;;;;;;9.10;71.91;97629.87;4468729;32;34759;-70
2023/12/22 00:27:04;;;;;;;;;;;;;;;9.05;72.65;97641.84;4441976;32;33119;-70
2023/12/22 00:29:35;;;;;;;;;;;;;;;9.01;72.13;97643.50;4454488;32;34593;-69
2023/12/22 00:32:03;;;;;;;;;;;;;;;8.94;72.94;97666.63;4469265;32;34995;-72
2023/12/22 00:34:30;;;;;;;;;;;;;;;9.08;72.42;97667.75;4468594;32;34379;-69
2023/12/22 00:36:57;;;;;;;;;;;;;;;9.24;72.09;97674.00;4468581;32;34421;-68
2023/12/22 00:39:25;;;;;;;;;;;;;;;9.00;73.51;97679.62;4469371;32;33567;-67
2023/12/22 00:41:52;;;;;;;;;;;;;;;8.69;75.54;97673.94;4469139;32;35047;-70
2023/12/22 00:44:19;;;;;;;;;;;;;;;8.72;76.06;97668.84;4466432;32;33762;-69
2023/12/22 00:46:46;;;;;;;;;;;;;;;8.95;75.14;97650.31;4467734;32;33261;-70
2023/12/22 00:49:14;;;;;;;;;;;;;;;8.74;75.89;97677.47;4464726;32;34773;-70
2023/12/22 00:51:41;;;;;;;;;;;;;;;8.94;75.61;97664.03;4466831;32;33773;-70
2023/12/22 00:54:09;;;;;;;;;;;;;;;8.91;75.66;97670.03;4467755;32;33617;-70
2023/12/22 00:56:36;;;;;;;;;;;;;;;8.88;76.17;97687.19;4466706;32;32936;-70
2023/12/22 00:59:03;;;;;;;;;;;;;;;8.95;75.96;97709.69;4471834;32;34237;-73
2023/12/22 01:01:38;;;;;;;;;;;;;;;8.79;76.31;97712.00;4467898;32;34169;-72
2023/12/22 01:04:05;;;;;;;;;;;;;;;8.65;77.46;97708.28;4467954;32;34578;-70
2023/12/22 01:06:36;;;;;;;;;;;;;;;8.72;76.78;97668.84;4467994;32;33288;-73
2023/12/22 01:09:04;;;;;;;;;;;;;;;9.06;75.68;97641.03;4465457;32;33938;-71
2023/12/22 01:11:31;;;;;;;;;;;;;;;8.94;76.23;97628.75;4467944;32;33918;-71
2023/12/22 01:13:59;;;;;;;;;;;;;;;8.99;75.85;97632.28;4454254;32;34520;-70
2023/12/22 01:16:26;;;;;;;;;;;;;;;9.16;74.83;97645.47;4467186;32;34140;-70
2023/12/22 01:18:53;;;;;;;;;;;;;;;9.33;74.00;97662.94;4466569;32;34191;-72
2023/12/22 01:21:21;;;;;;;;;;;;;;;9.35;73.48;97676.75;4467601;32;32760;-71
2023/12/22 01:23:48;;;;;;;;;;;;;;;9.38;73.23;97663.88;4467138;32;35011;-74
2023/12/22 01:26:16;;;;;;;;;;;;;;;9.38;73.46;97663.88;4466506;32;34245;-73
2023/12/22 01:28:43;;;;;;;;;;;;;;;9.24;73.02;97672.28;4467025;32;33985;-73
2023/12/22 01:31:10;;;;;;;;;;;;;;;9.56;72.26;97663.28;4443007;32;34924;-71
2023/12/22 01:33:38;;;;;;;;;;;;;;;9.42;72.59;97666.53;4467013;32;34079;-70
2023/12/22 01:36:05;;;;;;;;;;;;;;;9.56;72.19;97661.59;4466684;32;33977;-71
2023/12/22 01:38:32;;;;;;;;;;;;;;;9.54;71.56;97668.44;4465290;32;34172;-70
2023/12/22 01:41:00;;;;;;;;;;;;;;;9.41;72.31;97671.69;4466997;32;34169;-73
2023/12/22 01:43:27;;;;;;;;;;;;;;;9.33;72.83;97673.28;4466787;32;34279;-71
2023/12/22 01:45:58;;;;;;;;;;;;;;;9.51;71.58;97668.41;4466216;32;32934;-70
2023/12/22 01:48:25;;;;;;;;;;;;;;;9.28;72.46;97664.59;4467110;32;34030;-70
2023/12/22 01:50:52;;;;;;;;;;;;;;;9.35;71.87;97674.16;4466911;32;34242;-73
2023/12/22 01:53:20;;;;;;;;;;;;;;;8.93;72.93;97689.00;4466641;32;33594;-71
2023/12/22 01:55:48;;;;;;;;;;;;;;;8.87;72.62;97685.47;4441163;32;33262;-71
2023/12/22 01:58:15;;;;;;;;;;;;;;;9.00;72.62;97687.38;4466087;32;34130;-71
2023/12/22 02:00:43;;;;;;;;;;;;;;;8.90;72.41;97663.13;4466664;32;34230;-72
2023/12/22 02:03:11;;;;;;;;;;;;;;;8.84;72.35;97650.97;4455572;32;32693;-72
2023/12/22 02:05:40;;;;;;;;;;;;;;;8.89;72.21;97643.31;4468829;32;34122;-74
2023/12/22 02:08:07;;;;;;;;;;;;;;;8.82;72.35;97613.94;4474487;26;34770;-77
2023/12/22 02:10:34;;;;;;;;;;;;;;;9.05;71.59;97627.22;4456551;32;34251;-78
2023/12/22 02:13:02;;;;;;;;;;;;;;;8.97;71.67;97613.31;4455896;32;34388;-77
2023/12/22 02:15:30;;;;;;;;;;;;;;;9.03;71.22;97594.47;4460093;32;32991;-76
2023/12/22 02:18:17;;;;;;;;;;;;;;;8.96;71.65;97605.53;4456862;32;33909;-76
2023/12/22 02:20:45;;;;;;;;;;;;;;;9.27;70.58;97606.00;4457663;32;33882;-77
2023/12/22 02:23:12;;;;;;;;;;;;;;;9.06;71.00;97586.78;4457700;32;35060;-77
2023/12/22 02:25:39;;;;;;;;;;;;;;;9.20;70.25;97595.59;4458555;32;32872;-77
2023/12/22 02:28:07;;;;;;;;;;;;;;;9.22;70.13;97609.41;4460955;32;33910;-77
2023/12/22 02:30:39;;;;;;;;;;;;;;;9.10;70.90;97598.91;4455882;32;32905;-77
2023/12/22 02:33:07;;;;;;;;;;;;;;;9.08;71.10;97563.53;4430031;32;34777;-76
2023/12/22 02:35:35;;;;;;;;;;;;;;;9.28;69.86;97561.28;4429087;32;33183;-76
2023/12/22 02:38:03;;;;;;;;;;;;;;;9.30;69.48;97588.00;4452873;32;33687;-76
2023/12/22 02:40:31;;;;;;;;;;;;;;;9.30;69.59;97606.06;4460038;32;34276;-78
2023/12/22 02:42:58;;;;;;;;;;;;;;;9.31;69.52;97618.13;4459656;32;34258;-78
2023/12/22 02:45:26;;;;;;;;;;;;;;;9.28;69.46;97638.78;4458017;32;33615;-77
2023/12/22 02:47:53;;;;;;;;;;;;;;;9.13;69.91;97650.59;4461426;32;33126;-76
2023/12/22 02:50:21;;;;;;;;;;;;;;;8.62;71.59;97651.47;4460598;32;34809;-77
2023/12/22 02:52:48;;;;;;;;;;;;;;;9.00;70.20;97646.06;4455334;32;34716;-76
2023/12/22 02:55:16;;;;;;;;;;;;;;;8.82;70.80;97657.81;4452911;32;33780;-77
2023/12/22 02:57:43;;;;;;;;;;;;;;;8.95;70.45;97630.50;4445145;32;33794;-77
2023/12/22 03:00:11;;;;;;;;;;;;;;;9.05;69.79;97605.69;4462101;32;35103;-77
2023/12/22 03:02:38;;;;;;;;;;;;;;;9.01;69.88;97617.69;4449384;32;35166;-76
2023/12/22 03:05:06;;;;;;;;;;;;;;;8.72;70.93;97612.06;4451484;32;32217;-77
2023/12/22 03:07:33;;;;;;;;;;;;;;;8.81;70.45;97612.22;4459012;32;34208;-77
2023/12/22 03:10:01;;;;;;;;;;;;;;;9.02;69.84;97616.84;4457704;32;34932;-77
2023/12/22 03:12:28;;;;;;;;;;;;;;;8.78;70.53;97622.47;4456638;32;33670;-76
2023/12/22 03:14:55;;;;;;;;;;;;;;;8.99;69.54;97623.69;4457813;32;33462;-77
2023/12/22 03:17:23;;;;;;;;;;;;;;;9.16;68.79;97624.81;4456315;32;32994;-77
2023/12/22 03:19:50;;;;;;;;;;;;;;;9.05;68.55;97647.88;4457299;32;34939;-76
2023/12/22 03:22:18;;;;;;;;;;;;;;;8.93;68.64;97631.34;4456893;32;34101;-77
2023/12/22 03:24:45;;;;;;;;;;;;;;;9.07;67.76;97642.75;4456965;32;33919;-77
2023/12/22 03:27:16;;;;;;;;;;;;;;;9.08;67.63;97662.56;4459401;32;34016;-76
2023/12/22 03:29:43;;;;;;;;;;;;;;;8.96;67.52;97677.84;4456927;32;33751;-76
2023/12/22 03:32:11;;;;;;;;;;;;;;;8.65;68.68;97674.72;4452777;32;34900;-76
2023/12/22 03:34:38;;;;;;;;;;;;;;;8.78;68.43;97687.00;4445663;32;33201;-76
2023/12/22 03:37:05;;;;;;;;;;;;;;;8.71;68.20;97680.03;4446431;32;33951;-77
2023/12/22 03:39:33;;;;;;;;;;;;;;;8.64;67.41;97671.28;4452571;32;34304;-76
2023/12/22 03:42:00;;;;;;;;;;;;;;;8.34;66.33;97675.84;4452017;32;33995;-76
2023/12/22 03:44:27;;;;;;;;;;;;;;;8.11;67.03;97672.78;4453279;32;33474;-76
2023/12/22 03:46:55;;;;;;;;;;;;;;;7.88;66.09;97663.75;4450472;32;33187;-76
2023/12/22 03:49:23;;;;;;;;;;;;;;;7.86;65.58;97660.28;4449930;32;34186;-76
2023/12/22 03:51:50;;;;;;;;;;;;;;;8.12;64.97;97674.56;4449819;32;34380;-76
2023/12/22 03:54:18;;;;;;;;;;;;;;;8.08;64.35;97664.16;4449074;32;33322;-77
2023/12/22 03:56:45;;;;;;;;;;;;;;;8.13;62.93;97681.44;4453394;32;34737;-76
2023/12/22 03:59:13;;;;;;;;;;;;;;;8.08;63.47;97699.41;4453000;32;34275;-76
2023/12/22 04:01:40;;;;;;;;;;;;;;;7.84;63.65;97694.56;4452617;32;34819;-77
2023/12/22 04:04:08;;;;;;;;;;;;;;;8.00;63.01;97694.09;4453476;32;33140;-76
2023/12/22 04:06:39;;;;;;;;;;;;;;;7.92;62.08;97694.75;4452213;32;34627;-76
2023/12/22 04:09:06;;;;;;;;;;;;;;;8.04;61.30;97695.88;4448802;32;32523;-76
2023/12/22 04:11:34;;;;;;;;;;;;;;;7.96;61.79;97705.19;4452598;32;34308;-77
2023/12/22 04:14:06;;;;;;;;;;;;;;;7.94;61.77;97705.97;4445578;32;33163;-77
2023/12/22 04:16:35;;;;;;;;;;;;;;;7.95;61.64;97706.00;4448699;32;34107;-76
2023/12/22 04:19:03;;;;;;;;;;;;;;;7.91;61.57;97706.78;4450052;32;34810;-76
2023/12/22 04:21:30;;;;;;;;;;;;;;;8.00;61.09;97701.81;4453037;32;34274;-78
2023/12/22 04:23:58;;;;;;;;;;;;;;;8.21;60.31;97723.75;4451807;32;33373;-78
2023/12/22 04:26:25;;;;;;;;;;;;;;;8.02;60.87;97731.09;4449843;32;33723;-76
2023/12/22 04:28:52;;;;;;;;;;;;;;;8.01;61.25;97739.63;4446634;32;34889;-77
2023/12/22 04:31:20;;;;;;;;;;;;;;;8.15;60.89;97737.37;4453329;32;33692;-76
2023/12/22 04:33:47;;;;;;;;;;;;;;;8.20;60.49;97737.47;4453197;32;33260;-77
2023/12/22 04:36:16;;;;;;;;;;;;;;;8.00;60.86;97727.59;4451918;32;33035;-78
2023/12/22 04:38:43;;;;;;;;;;;;;;;8.02;61.23;97736.25;4452680;32;34235;-76
2023/12/22 04:41:10;;;;;;;;;;;;;;;8.15;60.61;97721.91;4452977;32;34410;-76
2023/12/22 04:43:37;;;;;;;;;;;;;;;8.28;59.99;97733.31;4449033;32;34413;-76
2023/12/22 04:46:05;;;;;;;;;;;;;;;8.17;59.78;97719.34;4443819;32;34025;-76
2023/12/22 04:48:33;;;;;;;;;;;;;;;7.94;60.09;97735.22;4451819;32;33800;-77
2023/12/22 04:51:00;;;;;;;;;;;;;;;7.98;60.31;97739.59;4446171;32;34176;-77
2023/12/22 04:53:28;;;;;;;;;;;;;;;7.95;60.42;97742.09;4452064;32;33264;-76
2023/12/22 04:55:55;;;;;;;;;;;;;;;8.14;59.73;97735.63;4450454;32;33910;-77
2023/12/22 04:58:22;;;;;;;;;;;;;;;7.95;60.24;97744.66;4443651;32;34128;-76
2023/12/22 05:00:50;;;;;;;;;;;;;;;8.04;60.16;97750.03;4452925;32;34250;-77
2023/12/22 05:03:17;;;;;;;;;;;;;;;8.14;59.88;97745.06;4450102;32;33160;-77
2023/12/22 05:05:44;;;;;;;;;;;;;;;8.28;59.24;97743.66;4452777;32;35236;-76
2023/12/22 05:08:12;;;;;;;;;;;;;;;8.41;58.64;97753.41;4452060;32;34128;-78
2023/12/22 05:10:39;;;;;;;;;;;;;;;8.41;58.82;97755.09;4446088;32;34061;-76
2023/12/22 05:13:06;;;;;;;;;;;;;;;8.33;59.00;97765.25;4451858;32;33880;-76
2023/12/22 05:15:34;;;;;;;;;;;;;;;8.40;58.67;97769.72;4451006;32;34818;-78
2023/12/22 05:18:01;;;;;;;;;;;;;;;8.47;58.62;97786.22;4450779;32;34266;-77
2023/12/22 05:20:28;;;;;;;;;;;;;;;8.15;59.59;97790.63;4452485;32;34367;-76
2023/12/22 05:22:56;;;;;;;;;;;;;;;8.15;59.60;97798.37;4452059;32;34124;-77
2023/12/22 05:25:24;;;;;;;;;;;;;;;8.53;58.46;97795.78;4458537;32;34088;-77
2023/12/22 05:27:51;;;;;;;;;;;;;;;8.58;57.68;97799.34;4452343;32;34854;-77
2023/12/22 05:30:19;;;;;;;;;;;;;;;8.27;58.45;97798.66;4448081;32;34259;-77
2023/12/22 05:32:46;;;;;;;;;;;;;;;8.22;58.49;97805.41;4452737;32;33881;-77
2023/12/22 05:35:13;;;;;;;;;;;;;;;8.49;57.37;97804.31;4452322;32;34778;-77
2023/12/22 05:37:41;;;;;;;;;;;;;;;8.61;56.21;97804.56;4454842;32;34297;-75
2023/12/22 05:40:09;;;;;;;;;;;;;;;8.05;56.92;97808.50;4453354;32;34306;-76
2023/12/22 05:42:37;;;;;;;;;;;;;;;8.13;56.80;97810.38;4454631;32;33075;-76
2023/12/22 05:45:06;;;;;;;;;;;;;;;7.94;57.28;97815.13;4454552;32;33633;-77
2023/12/22 05:47:33;;;;;;;;;;;;;;;8.15;56.61;97813.84;4453154;32;33596;-76
2023/12/22 05:50:00;;;;;;;;;;;;;;;8.11;56.66;97812.03;4454395;32;34103;-77
2023/12/22 05:52:28;;;;;;;;;;;;;;;8.19;55.95;97820.81;4454150;32;33451;-76
2023/12/22 05:54:56;;;;;;;;;;;;;;;7.95;55.92;97819.44;4454937;32;34703;-76
2023/12/22 05:57:24;;;;;;;;;;;;;;;7.86;55.58;97826.94;4453808;32;33603;-77
2023/12/22 05:59:52;;;;;;;;;;;;;;;7.67;55.92;97836.81;4453861;32;34296;-77
2023/12/22 06:02:20;;;;;;;;;;;;;;;7.68;55.42;97838.53;4461053;32;32858;-78
2023/12/22 06:04:47;;;;;;;;;;;;;;;7.51;55.88;97847.56;4451045;32;34266;-76
2023/12/22 06:07:14;;;;;;;;;;;;;;;7.54;54.74;97841.63;4452630;32;34431;-76
2023/12/22 06:09:42;;;;;;;;;;;;;;;7.45;54.74;97834.53;4454414;32;33850;-76
2023/12/22 06:12:10;;;;;;;;;;;;;;;7.38;55.02;97842.94;4453474;32;32942;-76
2023/12/22 06:14:40;;;;;;;;;;;;;;;7.39;54.99;97857.56;4454486;32;32913;-77
2023/12/22 06:17:07;;;;;;;;;;;;;;;7.27;55.22;97865.84;4450805;32;34002;-76
2023/12/22 06:19:35;;;;;;;;;;;;;;;7.40;55.27;97873.06;4454524;32;35217;-78
2023/12/22 06:22:03;;;;;;;;;;;;;;;7.63;54.76;97889.13;4452456;32;34032;-78
2023/12/22 06:24:30;;;;;;;;;;;;;;;7.69;54.34;97896.13;4451326;32;33960;-76
2023/12/22 06:26:58;;;;;;;;;;;;;;;7.61;54.44;97898.53;4454344;32;34132;-78
2023/12/22 06:29:25;;;;;;;;;;;;;;;7.62;54.45;97910.56;4462778;32;34324;-77
2023/12/22 06:31:56;;;;;;;;;;;;;;;7.60;53.67;97907.06;4468039;32;33172;-76
2023/12/22 06:34:25;;;;;;;;;;;;;;;7.61;54.08;97918.25;4453724;32;34259;-77
2023/12/22 06:36:52;;;;;;;;;;;;;;;7.33;54.04;97911.50;4456860;32;33985;-78
2023/12/22 06:39:20;;;;;;;;;;;;;;;7.39;54.12;97901.34;4453850;32;33643;-78
2023/12/22 06:41:48;;;;;;;;;;;;;;;7.48;54.34;97902.47;4453573;32;33369;-78
2023/12/22 06:44:15;;;;;;;;;;;;;;;7.64;53.47;97902.88;4457328;32;33810;-78
2023/12/22 06:46:42;;;;;;;;;;;;;;;7.53;53.85;97904.28;4453339;32;34164;-77
2023/12/22 06:49:10;;;;;;;;;;;;;;;7.75;52.54;97901.44;4455174;32;33701;-78
2023/12/22 06:51:37;;;;;;;;;;;;;;;7.73;52.50;97900.53;4456446;32;33812;-78
2023/12/22 06:54:04;;;;;;;;;;;;;;;7.85;51.46;97902.53;4457550;32;34129;-76
2023/12/22 06:56:35;;;;;;;;;;;;;;;7.77;51.57;97898.91;4452969;32;34995;-78
2023/12/22 06:59:02;;;;;;;;;;;;;;;7.44;52.50;97910.09;4456103;32;34223;-76
2023/12/22 07:01:31;;;;;;;;;;;;;;;7.75;51.55;97913.47;4454657;32;33337;-76
2023/12/22 07:04:02;;;;;;;;;;;;;;;7.71;51.51;97906.47;4457932;32;33943;-76
2023/12/22 07:06:33;;;;;;;;;;;;;;;7.62;51.42;97918.28;4447774;32;34274;-74
2023/12/22 07:09:01;;;;;;;;;;;;;;;7.52;51.46;97918.88;4455637;32;34549;-77
2023/12/22 07:11:28;;;;;;;;;;;;;;;7.43;51.61;97913.47;4453065;32;33438;-76
2023/12/22 07:14:04;;;;;;;;;;;;;;;7.38;51.46;97925.34;4463524;32;34130;-76
2023/12/22 07:16:33;;;;;;;;;;;;;;;7.36;52.13;97921.88;4457810;32;34524;-76
2023/12/22 07:19:01;;;;;;;;;;;;;;;7.36;52.17;97922.75;4462599;32;34011;-77
2023/12/22 07:21:29;;;;;;;;;;;;;;;7.77;51.09;97925.53;4460964;32;33536;-78
2023/12/22 07:23:57;;;;;;;;;;;;;;;7.85;50.41;97925.75;4454608;32;34897;-76
2023/12/22 07:26:26;;;;;;;;;;;;;;;7.80;50.93;97929.91;4443368;32;34953;-78
2023/12/22 07:28:54;;;;;;;;;;;;;;;8.11;50.14;97913.47;4457950;32;34223;-77
2023/12/22 07:31:21;;;;;;;;;;;;;;;8.03;50.18;97913.28;4446933;32;33139;-76
2023/12/22 07:33:48;;;;;;;;;;;;;;;7.96;50.93;97905.37;4450313;32;33893;-76
2023/12/22 07:36:18;;;;;;;;;;;;;;;8.24;61.91;97912.06;4453015;32;34842;-77
2023/12/22 07:38:46;;;;;;;;;;;;;;;8.36;52.67;97906.31;4451175;32;34088;-77
2023/12/22 07:41:13;;;;;;;;;;;;;;;8.41;51.68;97904.72;4452716;32;33252;-80
2023/12/22 07:43:42;;;;;;;;;;;;;;;8.25;51.33;97911.25;4430196;32;34169;-76
2023/12/22 07:46:16;;;;;;;;;;;;;;;8.17;52.64;97930.81;4452538;32;34181;-76
2023/12/22 07:48:45;;;;;;;;;;;;;;;8.32;52.42;97915.69;4442885;32;34727;-79
2023/12/22 07:51:12;;;;;;;;;;;;;;;8.41;52.30;97923.69;4452764;32;33499;-79
2023/12/22 07:53:40;;;;;;;;;;;;;;;8.33;52.67;97912.28;4423523;32;937387;-76
2023/12/22 07:56:10;;;;;;;;;;;;;;;8.35;52.92;97917.50;4453769;32;34374;-80
2023/12/22 07:58:39;;;;;;;;;;;;;;;8.23;54.06;97925.81;4454491;32;34234;-77
2023/12/22 08:01:06;;;;;;;;;;;;;;;8.14;54.35;97928.19;4445840;32;33375;-76
2023/12/22 08:03:34;;;;;;;;;;;;;;;8.17;54.00;97941.13;4453350;32;34153;-76
2023/12/22 08:06:01;;;;;;;;;;;;;;;7.95;54.85;97935.44;4451970;32;34709;-77
2023/12/22 08:08:29;;;;;;;;;;;;;;;8.00;54.18;97940.72;4452617;32;34703;-78
2023/12/22 08:10:56;;;;;;;;;;;;;;;7.96;53.79;97932.03;4451940;32;33197;-77
2023/12/22 08:13:23;;;;;;;;;;;;;;;7.97;54.11;97933.78;4450823;32;33437;-77
2023/12/22 08:15:51;;;;;;;;;;;;;;;8.42;53.11;97932.28;4453708;32;34637;-77
2023/12/22 08:18:18;;;;;;;;;;;;;;;8.31;52.92;97924.28;4439743;32;34196;-76
2023/12/22 08:20:49;;;;;;;;;;;;;;;8.24;53.12;97920.69;4452286;32;33395;-77
2023/12/22 08:23:17;;;;;;;;;;;;;;;8.40;52.49;97919.34;4449547;32;34814;-76
2023/12/22 08:25:45;;;;;;;;;;;;;;;8.50;52.17;97933.38;4450698;32;34901;-77
2023/12/22 08:28:13;;;;;;;;;;;;;;;8.36;52.71;97927.81;4460050;32;34194;-76
2023/12/22 08:30:40;;;;;;;;;;;;;;;8.28;52.71;97937.09;4455998;32;32186;-78
2023/12/22 08:33:08;;;;;;;;;;;;;;;8.26;52.91;97931.03;4461549;32;33832;-78
2023/12/22 08:35:36;;;;;;;;;;;;;;;8.31;53.23;97929.44;4457839;32;34936;-77
2023/12/22 08:38:03;;;;;;;;;;;;;;;8.45;52.96;97940.12;4464964;32;34256;-77
2023/12/22 08:40:31;;;;;;;;;;;;;;;8.28;53.58;97950.00;4452889;32;33493;-76
2023/12/22 08:43:01;;;;;;;;;;;;;;;8.36;53.91;97943.31;4452619;32;34748;-76
2023/12/22 08:45:28;;;;;;;;;;;;;;;8.21;53.77;97948.13;4460662;32;35175;-78
2023/12/22 08:47:56;;;;;;;;;;;;;;;8.49;53.35;97941.94;4454145;32;34743;-79
2023/12/22 08:50:24;;;;;;;;;;;;;;;8.57;72.01;97945.53;4452346;32;33535;-80
2023/12/22 08:52:52;;;;;;;;;;;;;;;8.74;54.19;97948.50;4451362;32;32380;-77
2023/12/22 08:55:20;;;;;;;;;;;;;;;8.90;53.07;97951.44;4439097;32;35106;-77
2023/12/22 08:57:47;;;;;;;;;;;;;;;8.64;53.20;97967.22;4451162;32;34475;-76
2023/12/22 09:00:26;;;;;;;;;;;;;;;8.75;53.20;97968.34;4441470;32;33112;-78
2023/12/22 09:02:53;;;;;;;;;;;;;;;8.52;54.21;97979.81;4451372;32;34154;-77
2023/12/22 09:05:22;;;;;;;;;;;;;;;8.63;53.33;97978.38;4451967;32;34287;-77
2023/12/22 09:07:50;;;;;;;;;;;;;;;8.81;51.79;97977.94;4452596;32;34218;-77
2023/12/22 09:10:17;;;;;;;;;;;;;;;8.77;52.62;97979.56;4451978;32;34148;-77
2023/12/22 09:12:45;;;;;;;;;;;;;;;8.55;51.91;97965.28;4457408;32;33617;-77
2023/12/22 09:15:12;;;;;;;;;;;;;;;8.78;51.99;97978.72;4452458;32;34857;-78
2023/12/22 09:17:41;;;;;;;;;;;;;;;8.70;52.51;97961.34;4452533;32;34203;-76
2023/12/22 09:20:11;;;;;;;;;;;;;;;9.05;50.85;97967.25;4451395;32;33140;-78
2023/12/22 09:22:39;;;;;;;;;;;;;;;8.88;50.82;97966.03;4450073;32;33412;-78
2023/12/22 09:25:08;;;;;;;;;;;;;;;9.03;50.44;97958.59;4440940;32;33726;-75
2023/12/22 09:27:35;;;;;;;;;;;;;;;9.10;51.25;97965.66;4451608;32;34442;-78
2023/12/22 09:30:06;;;;;;;;;;;;;;;9.27;49.92;97955.66;4451970;32;33368;-77
2023/12/22 09:32:34;;;;;;;;;;;;;;;9.42;49.70;97942.16;4452446;32;34228;-79
2023/12/22 09:35:02;;;;;;;;;;;;;;;9.65;49.73;97940.88;4452253;32;33832;-77
2023/12/22 09:37:30;;;;;;;;;;;;;;;9.62;49.34;97950.31;4451878;32;34269;-78
2023/12/22 09:39:58;;;;;;;;;;;;;;;9.69;48.66;97956.47;4448672;32;33485;-79
2023/12/22 09:42:25;;;;;;;;;;;;;;;9.69;49.41;97962.50;4444628;32;34048;-77
2023/12/22 09:44:53;;;;;;;;;;;;;;;9.68;48.30;97949.53;4442628;32;34785;-76
2023/12/22 09:47:20;;;;;;;;;;;;;;;9.38;48.61;97956.72;4450610;32;34482;-76
2023/12/22 09:49:48;;;;;;;;;;;;;;;9.23;50.41;97975.41;4450475;32;33051;-79
2023/12/22 09:52:15;;;;;;;;;;;;;;;9.60;49.67;97963.22;4449692;32;34773;-76
2023/12/22 09:54:43;;;;;;;;;;;;;;;9.52;49.28;97974.22;4447202;32;34540;-77
2023/12/22 09:57:10;;;;;;;;;;;;;;;9.42;50.17;97968.00;4436458;32;34043;-74
2023/12/22 09:59:52;;;;;;;;;;;;;;;9.58;49.93;97962.31;4451098;32;33292;-76
2023/12/22 10:02:19;;;;;;;;;;;;;;;9.30;50.57;97963.47;4447989;32;34152;-75
2023/12/22 10:04:48;;;;;;;;;;;;;;;9.28;51.34;97952.22;4450951;32;34270;-73
2023/12/22 10:07:15;;;;;;;;;;;;;;;9.31;51.33;97959.16;4450133;32;34787;-74
2023/12/22 10:09:42;;;;;;;;;;;;;;;8.88;50.49;97950.53;4447371;32;34154;-74
2023/12/22 10:12:10;;;;;;;;;;;;;;;9.03;51.91;97961.19;4442117;32;33820;-74
2023/12/22 10:14:38;;;;;;;;;;;;;;;9.29;50.97;97946.25;4441539;32;33956;-76
2023/12/22 10:17:07;;;;;;;;;;;;;;;9.14;51.25;97946.78;4446905;32;34734;-76
2023/12/22 10:19:34;;;;;;;;;;;;;;;9.00;52.10;97963.69;4437785;32;34014;-75
2023/12/22 10:22:02;;;;;;;;;;;;;;;9.16;51.88;97955.44;4448535;32;33860;-75
2023/12/22 10:24:47;;;;;;;;;;;;;;;9.06;51.17;97969.00;4451152;32;33936;-76
2023/12/22 10:27:21;;;;;;;;;;;;;;;9.06;50.96;97953.53;4452882;32;34312;-76
2023/12/22 10:29:50;;;;;;;;;;;;;;;9.05;51.29;97951.75;4451982;32;33384;-75
2023/12/22 10:32:17;;;;;;;;;;;;;;;9.35;51.54;97955.78;4432160;32;33193;-74
2023/12/22 10:34:44;;;;;;;;;;;;;;;9.28;50.95;97934.16;4453000;32;34865;-74
2023/12/22 10:37:15;;;;;;;;;;;;;;;9.37;51.13;97933.47;4452522;32;34273;-74
2023/12/22 10:39:42;;;;;;;;;;;;;;;9.44;50.58;97909.47;4452653;32;33910;-74
2023/12/22 10:42:09;;;;;;;;;;;;;;;9.33;51.42;97901.53;4443662;32;34729;-74
2023/12/22 10:44:37;;;;;;;;;;;;;;;9.56;50.01;97904.53;4453942;32;33871;-74
2023/12/22 10:47:05;;;;;;;;;;;;;;;9.45;50.96;97900.88;4452937;32;33745;-74
2023/12/22 10:49:33;;;;;;;;;;;;;;;9.20;51.55;97908.16;4452381;32;33008;-73
2023/12/22 10:52:01;;;;;;;;;;;;;;;9.29;52.06;97904.00;4453918;32;34394;-74
2023/12/22 10:54:29;;;;;;;;;;;;;;;9.34;51.42;97903.25;4449560;32;34258;-75
2023/12/22 10:57:00;;;;;;;;;;;;;;;9.08;51.43;97897.59;4448579;32;34301;-73
2023/12/22 10:59:30;;;;;;;;;;;;;;;9.12;50.99;97922.66;4444865;32;34008;-73
2023/12/22 11:01:58;;;;;;;;;;;;;;;9.19;51.19;97908.12;4451050;32;34951;-73
2023/12/22 11:04:29;;;;;;;;;;;;;;;9.20;50.58;97910.75;4451102;32;33994;-74
2023/12/22 11:06:57;;;;;;;;;;;;;;;9.25;50.80;97909.12;4453808;32;34029;-74
2023/12/22 11:09:25;;;;;;;;;;;;;;;9.15;50.93;97927.84;4451941;32;33800;-73
2023/12/22 11:11:52;;;;;;;;;;;;;;;9.30;50.26;97931.59;4432033;32;31791;-73
2023/12/22 11:14:20;;;;;;;;;;;;;;;9.22;50.68;97916.81;4452020;32;34417;-72
2023/12/22 11:16:48;;;;;;;;;;;;;;;9.35;50.03;97922.22;4452515;32;34589;-73
2023/12/22 11:19:16;;;;;;;;;;;;;;;9.23;50.98;97936.66;4444938;32;33579;-75
2023/12/22 11:21:43;;;;;;;;;;;;;;;9.51;50.04;97926.84;4451512;32;34712;-74
2023/12/22 11:24:12;;;;;;;;;;;;;;;9.70;49.42;97919.44;4445817;32;32167;-72
2023/12/22 11:26:41;;;;;;;;;;;;;;;9.25;50.78;97921.16;4449001;32;34555;-75
2023/12/22 11:29:08;;;;;;;;;;;;;;;9.37;49.86;97928.31;4450019;32;32897;-74
2023/12/22 11:31:36;;;;;;;;;;;;;;;9.46;49.27;97943.97;4451961;32;34041;-73
2023/12/22 11:34:03;;;;;;;;;;;;;;;9.36;49.90;97936.88;4444217;32;34000;-73
2023/12/22 11:36:40;;;;;;;;;;;;;;;9.31;49.98;97929.06;4452760;32;33813;-74
2023/12/22 11:39:07;;;;;;;;;;;;;;;9.34;50.23;97941.16;4440588;32;34131;-75
2023/12/22 11:41:35;;;;;;;;;;;;;;;9.45;49.64;97926.72;4447056;32;34027;-76
2023/12/22 11:44:03;;;;;;;;;;;;;;;9.87;49.05;97946.47;4451584;32;34005;-75
2023/12/22 11:46:30;;;;;;;;;;;;;;;10.06;47.37;97905.37;4451730;32;33891;-73
2023/12/22 11:48:58;;;;;;;;;;;;;;;9.86;47.93;97929.19;4453429;32;33991;-76
2023/12/22 11:51:26;;;;;;;;;;;;;;;9.89;46.36;97918.91;4450618;32;32884;-73
2023/12/22 11:53:53;;;;;;;;;;;;;;;9.93;47.45;97917.22;4443112;32;34478;-73
2023/12/22 11:56:20;;;;;;;;;;;;;;;9.79;47.70;97919.56;4453721;32;34191;-74
2023/12/22 11:58:52;;;;;;;;;;;;;;;9.63;47.48;97928.78;4452216;32;33539;-73
2023/12/22 12:01:23;;;;;;;;;;;;;;;9.61;47.60;97939.09;4451970;32;34365;-74
2023/12/22 12:03:51;;;;;;;;;;;;;;;9.53;48.76;97929.47;4451582;32;34188;-73
2023/12/22 12:06:26;;;;;;;;;;;;;;;9.60;48.68;97932.19;4442213;32;35060;-73
2023/12/22 12:08:55;;;;;;;;;;;;;;;9.68;48.96;97932.34;4444433;32;34307;-73
2023/12/22 12:11:22;;;;;;;;;;;;;;;9.64;48.75;97946.91;4453226;32;33847;-75
2023/12/22 12:13:50;;;;;;;;;;;;;;;9.71;48.70;97954.78;4449243;32;33589;-71
2023/12/22 12:16:19;;;;;;;;;;;;;;;9.74;47.44;97934.16;4451898;32;34919;-73
2023/12/22 12:18:46;;;;;;;;;;;;;;;9.38;48.82;97935.19;4451920;32;33503;-72
2023/12/22 12:21:14;;;;;;;;;;;;;;;9.70;48.39;97937.53;4448368;32;34233;-73
2023/12/22 12:23:42;;;;;;;;;;;;;;;9.76;48.41;97943.69;4448209;32;34181;-73
2023/12/22 12:26:09;;;;;;;;;;;;;;;9.54;47.71;97937.25;4453345;32;34649;-74
2023/12/22 12:28:36;;;;;;;;;;;;;;;9.52;48.55;97954.44;4451680;32;33443;-73
2023/12/22 12:31:05;;;;;;;;;;;;;;;9.33;48.08;97947.16;4452044;32;34760;-75
2023/12/22 12:33:32;;;;;;;;;;;;;;;9.42;48.07;97961.13;4451891;32;34971;-72
2023/12/22 12:36:00;;;;;;;;;;;;;;;9.50;48.94;97961.25;4450154;32;33470;-72
2023/12/22 12:38:51;;;;;;;;;;;;;;;9.42;49.65;97955.94;4451707;32;32588;-74
2023/12/22 12:41:23;;;;;;;;;;;;;;;9.25;49.90;97949.56;4446839;32;33459;-72
2023/12/22 12:43:51;;;;;;;;;;;;;;;9.04;50.54;97934.53;4452143;32;33872;-73
2023/12/22 12:46:18;;;;;;;;;;;;;;;8.99;51.05;97936.13;4452041;32;34893;-73
2023/12/22 12:48:46;;;;;;;;;;;;;;;9.24;51.06;97958.19;4451947;32;32839;-74
2023/12/22 12:51:13;;;;;;;;;;;;;;;8.99;51.64;97961.97;4452956;32;33975;-74
2023/12/22 12:53:40;;;;;;;;;;;;;;;8.60;53.60;97948.22;4452063;32;34104;-73
2023/12/22 12:56:08;;;;;;;;;;;;;;;8.86;52.99;97953.06;4451280;32;34150;-74
2023/12/22 12:58:39;;;;;;;;;;;;;;;9.06;53.21;97943.19;4448734;32;33899;-73
2023/12/22 13:01:07;;;;;;;;;;;;;;;8.97;53.66;97943.00;4452353;32;34678;-74